sensor_id;sensor_type;location;lat;lon;timestamp;pressure;altitude;pressure_sealevel;temperature;humidity
74372;BME280;62885;51.374;6.170;2023-02-25T00:02:09;100480.34;;;3.94;85.79
74372;BME280;62885;51.374;6.170;2023-02-25T00:04:34;100485.66;;;3.94;86.05
74372;BME280;62885;51.374;6.170;2023-02-25T00:07:00;100492.97;;;3.89;85.54
74372;BME280;62885;51.374;6.170;2023-02-25T00:09:26;100489.59;;;3.85;85.98
74372;BME280;62885;51.374;6.170;2023-02-25T00:11:52;100488.84;;;3.83;86.06
74372;BME280;62885;51.374;6.170;2023-02-25T00:14:17;100492.13;;;3.88;85.68
74372;BME280;62885;51.374;6.170;2023-02-25T00:16:43;100486.66;;;3.91;84.89
74372;BME280;62885;51.374;6.170;2023-02-25T00:19:08;100483.94;;;3.93;85.53
74372;BME280;62885;51.374;6.170;2023-02-25T00:21:35;100471.78;;;3.89;85.36
74372;BME280;62885;51.374;6.170;2023-02-25T00:24:00;100482.38;;;3.89;85.14
74372;BME280;62885;51.374;6.170;2023-02-25T00:26:26;100481.06;;;3.80;85.98
74372;BME280;62885;51.374;6.170;2023-02-25T00:28:51;100483.69;;;3.80;85.43
74372;BME280;62885;51.374;6.170;2023-02-25T00:31:23;100475.22;;;3.73;85.93
74372;BME280;62885;51.374;6.170;2023-02-25T00:33:50;100476.25;;;3.71;86.09
74372;BME280;62885;51.374;6.170;2023-02-25T00:36:18;100472.66;;;3.72;85.62
74372;BME280;62885;51.374;6.170;2023-02-25T00:38:45;100476.31;;;3.69;85.60
74372;BME280;62885;51.374;6.170;2023-02-25T00:41:19;100473.84;;;3.66;86.11
74372;BME280;62885;51.374;6.170;2023-02-25T00:43:59;100472.25;;;3.62;85.92
74372;BME280;62885;51.374;6.170;2023-02-25T00:46:25;100467.06;;;3.61;86.08
74372;BME280;62885;51.374;6.170;2023-02-25T00:48:50;100472.44;;;3.59;86.51
74372;BME280;62885;51.374;6.170;2023-02-25T00:51:18;100467.47;;;3.53;86.77
74372;BME280;62885;51.374;6.170;2023-02-25T00:53:43;100460.38;;;3.54;86.86
74372;BME280;62885;51.374;6.170;2023-02-25T00:56:11;100460.50;;;3.51;87.25
74372;BME280;62885;51.374;6.170;2023-02-25T00:58:40;100466.75;;;3.50;87.24
74372;BME280;62885;51.374;6.170;2023-02-25T01:03:42;100473.91;;;3.48;87.11
74372;BME280;62885;51.374;6.170;2023-02-25T01:06:08;100470.41;;;3.47;87.45
74372;BME280;62885;51.374;6.170;2023-02-25T01:08:33;100478.97;;;3.52;87.60
74372;BME280;62885;51.374;6.170;2023-02-25T01:10:59;100473.50;;;3.55;87.65
74372;BME280;62885;51.374;6.170;2023-02-25T01:13:24;100481.25;;;3.60;87.78
74372;BME280;62885;51.374;6.170;2023-02-25T01:15:50;100478.81;;;3.55;87.47
74372;BME280;62885;51.374;6.170;2023-02-25T01:18:15;100476.09;;;3.57;87.72
74372;BME280;62885;51.374;6.170;2023-02-25T01:20:42;100476.94;;;3.57;87.53
74372;BME280;62885;51.374;6.170;2023-02-25T01:23:07;100472.38;;;3.61;87.79
74372;BME280;62885;51.374;6.170;2023-02-25T01:25:33;100477.72;;;3.59;87.89
74372;BME280;62885;51.374;6.170;2023-02-25T01:27:59;100476.88;;;3.59;88.13
74372;BME280;62885;51.374;6.170;2023-02-25T01:30:24;100476.81;;;3.60;87.67
74372;BME280;62885;51.374;6.170;2023-02-25T01:32:50;100475.94;;;3.60;87.48
74372;BME280;62885;51.374;6.170;2023-02-25T01:35:15;100472.19;;;3.64;87.72
74372;BME280;62885;51.374;6.170;2023-02-25T01:37:41;100478.34;;;3.64;87.42
74372;BME280;62885;51.374;6.170;2023-02-25T01:40:12;100484.56;;;3.63;87.51
74372;BME280;62885;51.374;6.170;2023-02-25T01:42:40;100490.72;;;3.64;87.24
74372;BME280;62885;51.374;6.170;2023-02-25T01:47:54;100483.56;;;3.66;87.31
74372;BME280;62885;51.374;6.170;2023-02-25T01:50:23;100487.28;;;3.62;87.36
74372;BME280;62885;51.374;6.170;2023-02-25T01:52:49;100483.94;;;3.58;87.62
74372;BME280;62885;51.374;6.170;2023-02-25T01:55:18;100492.81;;;3.57;87.14
74372;BME280;62885;51.374;6.170;2023-02-25T01:57:43;100482.00;;;3.62;87.65
74372;BME280;62885;51.374;6.170;2023-02-25T02:00:09;100482.78;;;3.64;86.90
74372;BME280;62885;51.374;6.170;2023-02-25T02:02:42;100485.50;;;3.62;86.92
74372;BME280;62885;51.374;6.170;2023-02-25T02:05:10;100482.78;;;3.64;86.75
74372;BME280;62885;51.374;6.170;2023-02-25T02:07:36;100477.31;;;3.67;87.13
74372;BME280;62885;51.374;6.170;2023-02-25T02:10:01;100486.91;;;3.69;86.31
74372;BME280;62885;51.374;6.170;2023-02-25T02:12:30;100491.34;;;3.69;86.79
74372;BME280;62885;51.374;6.170;2023-02-25T02:14:58;100485.13;;;3.70;86.48
74372;BME280;62885;51.374;6.170;2023-02-25T02:17:55;100480.63;;;3.72;86.55
74372;BME280;62885;51.374;6.170;2023-02-25T02:20:39;100488.31;;;3.77;86.02
74372;BME280;62885;51.374;6.170;2023-02-25T02:31:25;100483.56;;;3.83;85.44
74372;BME280;62885;51.374;6.170;2023-02-25T02:34:04;100486.34;;;3.80;85.76
74372;BME280;62885;51.374;6.170;2023-02-25T02:42:29;100478.72;;;3.74;86.29
74372;BME280;62885;51.374;6.170;2023-02-25T02:45:21;100480.75;;;3.69;86.84
74372;BME280;62885;51.374;6.170;2023-02-25T02:48:12;100481.69;;;3.68;87.05
74372;BME280;62885;51.374;6.170;2023-02-25T02:50:43;100487.84;;;3.68;86.80
74372;BME280;62885;51.374;6.170;2023-02-25T02:53:15;100487.06;;;3.66;86.83
74372;BME280;62885;51.374;6.170;2023-02-25T02:55:46;100497.75;;;3.65;87.10
74372;BME280;62885;51.374;6.170;2023-02-25T02:58:25;100494.22;;;3.64;87.36
74372;BME280;62885;51.374;6.170;2023-02-25T03:01:26;100500.47;;;3.63;87.66
74372;BME280;62885;51.374;6.170;2023-02-25T03:03:56;100494.22;;;3.64;87.21
74372;BME280;62885;51.374;6.170;2023-02-25T03:06:32;100493.19;;;3.67;87.42
74372;BME280;62885;51.374;6.170;2023-02-25T03:09:13;100492.28;;;3.68;87.15
74372;BME280;62885;51.374;6.170;2023-02-25T03:11:40;100487.78;;;3.70;86.89
74372;BME280;62885;51.374;6.170;2023-02-25T03:14:06;100487.59;;;3.73;86.75
74372;BME280;62885;51.374;6.170;2023-02-25T03:16:50;100495.63;;;3.71;86.96
74372;BME280;62885;51.374;6.170;2023-02-25T03:19:22;100492.88;;;3.73;86.75
74372;BME280;62885;51.374;6.170;2023-02-25T03:21:54;100485.66;;;3.77;86.37
74372;BME280;62885;51.374;6.170;2023-02-25T03:24:24;100489.16;;;3.77;86.62
74372;BME280;62885;51.374;6.170;2023-02-25T03:26:53;100496.19;;;3.78;86.42
74372;BME280;62885;51.374;6.170;2023-02-25T03:29:21;100497.13;;;3.77;86.55
74372;BME280;62885;51.374;6.170;2023-02-25T03:32:13;100495.41;;;3.76;86.57
74372;BME280;62885;51.374;6.170;2023-02-25T03:34:41;100499.66;;;3.79;86.49
74372;BME280;62885;51.374;6.170;2023-02-25T03:37:15;100500.44;;;3.81;86.34
74372;BME280;62885;51.374;6.170;2023-02-25T03:39:45;100495.09;;;3.82;86.05
74372;BME280;62885;51.374;6.170;2023-02-25T03:42:15;100503.03;;;3.82;85.89
74372;BME280;62885;51.374;6.170;2023-02-25T03:44:48;100509.88;;;3.86;85.88
74372;BME280;62885;51.374;6.170;2023-02-25T03:47:15;100511.75;;;3.84;85.95
74372;BME280;62885;51.374;6.170;2023-02-25T03:49:54;100510.59;;;3.90;86.12
74372;BME280;62885;51.374;6.170;2023-02-25T03:52:21;100510.66;;;3.88;86.22
74372;BME280;62885;51.374;6.170;2023-02-25T03:54:53;100501.84;;;3.88;86.16
74372;BME280;62885;51.374;6.170;2023-02-25T03:57:21;100512.44;;;3.88;86.53
74372;BME280;62885;51.374;6.170;2023-02-25T03:59:52;100507.16;;;3.88;86.02
74372;BME280;62885;51.374;6.170;2023-02-25T04:02:25;100524.91;;;3.86;86.01
74372;BME280;62885;51.374;6.170;2023-02-25T04:04:51;100513.31;;;3.88;86.04
74372;BME280;62885;51.374;6.170;2023-02-25T04:07:16;100517.81;;;3.86;86.29
74372;BME280;62885;51.374;6.170;2023-02-25T04:09:41;100511.75;;;3.84;86.37
74372;BME280;62885;51.374;6.170;2023-02-25T04:12:07;100514.53;;;3.81;86.48
74372;BME280;62885;51.374;6.170;2023-02-25T04:14:32;100512.75;;;3.82;86.73
74372;BME280;62885;51.374;6.170;2023-02-25T04:16:58;100531.13;;;3.85;86.15
74372;BME280;62885;51.374;6.170;2023-02-25T04:19:23;100518.91;;;3.82;86.00
74372;BME280;62885;51.374;6.170;2023-02-25T04:21:48;100528.66;;;3.82;86.45
74372;BME280;62885;51.374;6.170;2023-02-25T04:24:14;100525.19;;;3.80;86.09
74372;BME280;62885;51.374;6.170;2023-02-25T04:26:39;100524.66;;;3.73;86.76
74372;BME280;62885;51.374;6.170;2023-02-25T04:29:05;100530.81;;;3.73;86.59
74372;BME280;62885;51.374;6.170;2023-02-25T04:31:30;100531.66;;;3.74;86.38
74372;BME280;62885;51.374;6.170;2023-02-25T04:33:55;100530.75;;;3.75;86.87
74372;BME280;62885;51.374;6.170;2023-02-25T04:36:33;100528.16;;;3.73;86.32
74372;BME280;62885;51.374;6.170;2023-02-25T04:39:01;100528.09;;;3.75;86.67
74372;BME280;62885;51.374;6.170;2023-02-25T04:41:32;100531.97;;;3.68;86.58
74372;BME280;62885;51.374;6.170;2023-02-25T04:43:58;100527.41;;;3.71;86.65
74372;BME280;62885;51.374;6.170;2023-02-25T04:46:24;100525.63;;;3.72;86.83
74372;BME280;62885;51.374;6.170;2023-02-25T04:48:49;100525.69;;;3.70;86.89
74372;BME280;62885;51.374;6.170;2023-02-25T04:51:14;100527.47;;;3.70;86.56
74372;BME280;62885;51.374;6.170;2023-02-25T04:53:40;100533.56;;;3.72;86.48
74372;BME280;62885;51.374;6.170;2023-02-25T04:56:07;100525.69;;;3.70;86.39
74372;BME280;62885;51.374;6.170;2023-02-25T04:58:34;100538.69;;;3.75;86.05
74372;BME280;62885;51.374;6.170;2023-02-25T05:01:01;100532.53;;;3.75;86.67
74372;BME280;62885;51.374;6.170;2023-02-25T05:03:28;100536.09;;;3.73;86.93
74372;BME280;62885;51.374;6.170;2023-02-25T05:05:53;100532.69;;;3.71;86.95
74372;BME280;62885;51.374;6.170;2023-02-25T05:08:19;100531.84;;;3.71;87.03
74372;BME280;62885;51.374;6.170;2023-02-25T05:10:45;100530.06;;;3.71;86.58
74372;BME280;62885;51.374;6.170;2023-02-25T05:13:10;100544.91;;;3.74;86.74
74372;BME280;62885;51.374;6.170;2023-02-25T05:15:35;100540.22;;;3.79;86.41
74372;BME280;62885;51.374;6.170;2023-02-25T05:18:01;100536.72;;;3.79;86.28
74372;BME280;62885;51.374;6.170;2023-02-25T05:20:26;100550.63;;;3.84;86.52
74372;BME280;62885;51.374;6.170;2023-02-25T05:22:53;100545.16;;;3.87;86.51
74372;BME280;62885;51.374;6.170;2023-02-25T05:25:18;100540.78;;;3.86;86.73
74372;BME280;62885;51.374;6.170;2023-02-25T05:27:44;100531.91;;;3.87;86.21
74372;BME280;62885;51.374;6.170;2023-02-25T05:30:09;100538.00;;;3.89;86.25
74372;BME280;62885;51.374;6.170;2023-02-25T05:32:35;100532.69;;;3.89;85.86
74372;BME280;62885;51.374;6.170;2023-02-25T05:35:03;100530.81;;;3.91;85.25
74372;BME280;62885;51.374;6.170;2023-02-25T05:37:30;100531.66;;;3.91;85.64
74372;BME280;62885;51.374;6.170;2023-02-25T05:39:56;100530.72;;;3.92;85.15
74372;BME280;62885;51.374;6.170;2023-02-25T05:42:22;100528.09;;;3.92;84.99
74372;BME280;62885;51.374;6.170;2023-02-25T05:44:48;100527.94;;;3.95;84.81
74372;BME280;62885;51.374;6.170;2023-02-25T05:47:13;100535.97;;;3.94;84.87
74372;BME280;62885;51.374;6.170;2023-02-25T05:49:39;100542.88;;;3.96;84.86
74372;BME280;62885;51.374;6.170;2023-02-25T05:52:06;100544.91;;;3.91;85.38
74372;BME280;62885;51.374;6.170;2023-02-25T05:54:31;100549.13;;;3.95;85.36
74372;BME280;62885;51.374;6.170;2023-02-25T05:56:56;100540.47;;;3.92;84.93
74372;BME280;62885;51.374;6.170;2023-02-25T05:59:22;100553.63;;;3.93;85.52
74372;BME280;62885;51.374;6.170;2023-02-25T06:01:47;100554.50;;;3.94;85.42
74372;BME280;62885;51.374;6.170;2023-02-25T06:04:12;100556.34;;;3.92;85.56
74372;BME280;62885;51.374;6.170;2023-02-25T06:06:38;100554.44;;;3.95;85.14
74372;BME280;62885;51.374;6.170;2023-02-25T06:09:03;100550.06;;;3.94;84.66
74372;BME280;62885;51.374;6.170;2023-02-25T06:11:30;100550.91;;;3.95;84.14
74372;BME280;62885;51.374;6.170;2023-02-25T06:13:57;100543.03;;;3.93;84.70
74372;BME280;62885;51.374;6.170;2023-02-25T06:16:22;100551.06;;;3.92;84.66
74372;BME280;62885;51.374;6.170;2023-02-25T06:18:49;100559.94;;;3.91;84.53
74372;BME280;62885;51.374;6.170;2023-02-25T06:21:15;100552.22;;;3.86;85.06
74372;BME280;62885;51.374;6.170;2023-02-25T06:23:42;100555.13;;;3.82;85.84
74372;BME280;62885;51.374;6.170;2023-02-25T06:26:10;100554.56;;;3.75;86.15
74372;BME280;62885;51.374;6.170;2023-02-25T06:28:36;100552.84;;;3.74;85.74
74372;BME280;62885;51.374;6.170;2023-02-25T06:31:06;100554.75;;;3.72;86.00
74372;BME280;62885;51.374;6.170;2023-02-25T06:33:31;100575.06;;;3.71;86.29
74372;BME280;62885;51.374;6.170;2023-02-25T06:35:57;100575.06;;;3.71;85.81
74372;BME280;62885;51.374;6.170;2023-02-25T06:38:23;100573.16;;;3.73;84.96
74372;BME280;62885;51.374;6.170;2023-02-25T06:40:49;100570.38;;;3.77;84.57
74372;BME280;62885;51.374;6.170;2023-02-25T06:43:15;100577.47;;;3.76;85.25
74372;BME280;62885;51.374;6.170;2023-02-25T06:45:41;100566.31;;;3.69;85.38
74372;BME280;62885;51.374;6.170;2023-02-25T06:48:06;100577.72;;;3.71;85.52
74372;BME280;62885;51.374;6.170;2023-02-25T06:50:32;100577.91;;;3.67;85.78
74372;BME280;62885;51.374;6.170;2023-02-25T06:52:58;100586.88;;;3.64;86.01
74372;BME280;62885;51.374;6.170;2023-02-25T06:55:24;100592.41;;;3.60;86.51
74372;BME280;62885;51.374;6.170;2023-02-25T06:57:50;100593.56;;;3.54;87.52
74372;BME280;62885;51.374;6.170;2023-02-25T07:00:18;100601.50;;;3.54;87.60
74372;BME280;62885;51.374;6.170;2023-02-25T07:02:43;100599.84;;;3.52;87.58
74372;BME280;62885;51.374;6.170;2023-02-25T07:05:08;100607.38;;;3.61;86.88
74372;BME280;62885;51.374;6.170;2023-02-25T07:07:34;100616.50;;;3.72;85.58
74372;BME280;62885;51.374;6.170;2023-02-25T07:09:59;100611.72;;;3.79;85.20
74372;BME280;62885;51.374;6.170;2023-02-25T07:12:25;100607.38;;;3.78;85.13
74372;BME280;62885;51.374;6.170;2023-02-25T07:14:50;100615.22;;;3.80;84.91
74372;BME280;62885;51.374;6.170;2023-02-25T07:17:16;100619.03;;;3.74;85.07
74372;BME280;62885;51.374;6.170;2023-02-25T07:19:41;100620.06;;;3.71;84.97
74372;BME280;62885;51.374;6.170;2023-02-25T07:22:08;100627.16;;;3.71;85.78
74372;BME280;62885;51.374;6.170;2023-02-25T07:24:35;100624.50;;;3.71;85.38
74372;BME280;62885;51.374;6.170;2023-02-25T07:27:01;100626.22;;;3.72;85.61
74372;BME280;62885;51.374;6.170;2023-02-25T07:29:26;100623.56;;;3.72;86.06
74372;BME280;62885;51.374;6.170;2023-02-25T07:31:52;100619.91;;;3.75;86.20
74372;BME280;62885;51.374;6.170;2023-02-25T07:34:17;100629.31;;;3.80;86.15
74372;BME280;62885;51.374;6.170;2023-02-25T07:36:43;100625.75;;;3.81;85.95
74372;BME280;62885;51.374;6.170;2023-02-25T07:39:10;100623.09;;;3.81;85.84
74372;BME280;62885;51.374;6.170;2023-02-25T07:41:36;100623.97;;;3.82;85.87
74372;BME280;62885;51.374;6.170;2023-02-25T07:44:03;100626.44;;;3.85;85.42
74372;BME280;62885;51.374;6.170;2023-02-25T07:46:29;100624.59;;;3.87;85.86
74372;BME280;62885;51.374;6.170;2023-02-25T07:48:55;100622.63;;;3.90;85.62
74372;BME280;62885;51.374;6.170;2023-02-25T07:51:22;100619.06;;;3.91;85.68
74372;BME280;62885;51.374;6.170;2023-02-25T07:53:49;100627.63;;;3.96;85.04
74372;BME280;62885;51.374;6.170;2023-02-25T07:56:16;100632.63;;;4.02;85.75
74372;BME280;62885;51.374;6.170;2023-02-25T07:58:42;100639.63;;;4.03;84.86
74372;BME280;62885;51.374;6.170;2023-02-25T08:01:09;100645.00;;;4.02;85.69
74372;BME280;62885;51.374;6.170;2023-02-25T08:03:35;100647.56;;;4.03;85.32
74372;BME280;62885;51.374;6.170;2023-02-25T08:06:01;100644.69;;;4.08;85.02
74372;BME280;62885;51.374;6.170;2023-02-25T08:08:30;100647.19;;;4.11;84.99
74372;BME280;62885;51.374;6.170;2023-02-25T08:10:55;100647.19;;;4.11;84.57
74372;BME280;62885;51.374;6.170;2023-02-25T08:13:21;100656.00;;;4.11;84.67
74372;BME280;62885;51.374;6.170;2023-02-25T08:15:46;100648.50;;;4.20;84.64
74372;BME280;62885;51.374;6.170;2023-02-25T08:18:11;100648.94;;;4.29;84.25
74372;BME280;62885;51.374;6.170;2023-02-25T08:20:39;100659.03;;;4.38;84.02
74372;BME280;62885;51.374;6.170;2023-02-25T08:23:09;100653.44;;;4.44;83.72
74372;BME280;62885;51.374;6.170;2023-02-25T08:25:34;100654.13;;;4.48;83.33
74372;BME280;62885;51.374;6.170;2023-02-25T08:27:59;100661.06;;;4.50;83.89
74372;BME280;62885;51.374;6.170;2023-02-25T08:30:25;100650.47;;;4.50;84.06
74372;BME280;62885;51.374;6.170;2023-02-25T08:32:52;100653.19;;;4.49;83.17
74372;BME280;62885;51.374;6.170;2023-02-25T08:35:17;100661.69;;;4.55;83.44
74372;BME280;62885;51.374;6.170;2023-02-25T08:37:43;100655.44;;;4.57;83.09
74372;BME280;62885;51.374;6.170;2023-02-25T08:40:13;100654.88;;;4.67;83.03
74372;BME280;62885;51.374;6.170;2023-02-25T08:42:38;100652.84;;;4.72;83.01
74372;BME280;62885;51.374;6.170;2023-02-25T08:45:04;100651.91;;;4.73;83.42
74372;BME280;62885;51.374;6.170;2023-02-25T08:47:30;100664.56;;;4.68;83.53
74372;BME280;62885;51.374;6.170;2023-02-25T08:49:55;100671.25;;;4.75;82.69
74372;BME280;62885;51.374;6.170;2023-02-25T08:52:21;100685.63;;;4.71;83.49
74372;BME280;62885;51.374;6.170;2023-02-25T08:54:46;100680.53;;;4.67;83.04
74372;BME280;62885;51.374;6.170;2023-02-25T08:57:11;100684.81;;;4.69;82.84
74372;BME280;62885;51.374;6.170;2023-02-25T08:59:37;100680.31;;;4.71;83.32
74372;BME280;62885;51.374;6.170;2023-02-25T09:02:03;100676.56;;;4.75;84.17
74372;BME280;62885;51.374;6.170;2023-02-25T09:04:31;100673.59;;;4.81;83.31
74372;BME280;62885;51.374;6.170;2023-02-25T09:06:58;100677.25;;;4.79;83.40
74372;BME280;62885;51.374;6.170;2023-02-25T09:09:23;100670.53;;;4.89;83.07
74372;BME280;62885;51.374;6.170;2023-02-25T09:11:49;100662.91;;;4.83;83.01
74372;BME280;62885;51.374;6.170;2023-02-25T09:14:15;100669.50;;;4.91;83.11
74372;BME280;62885;51.374;6.170;2023-02-25T09:16:41;100671.16;;;5.10;83.00
74372;BME280;62885;51.374;6.170;2023-02-25T09:19:07;100680.50;;;5.17;81.86
74372;BME280;62885;51.374;6.170;2023-02-25T09:21:35;100687.28;;;5.22;82.61
74372;BME280;62885;51.374;6.170;2023-02-25T09:24:01;100692.06;;;5.16;81.40
74372;BME280;62885;51.374;6.170;2023-02-25T09:26:26;100697.69;;;5.10;81.04
74372;BME280;62885;51.374;6.170;2023-02-25T09:28:51;100699.84;;;5.19;81.52
74372;BME280;62885;51.374;6.170;2023-02-25T09:31:17;100702.81;;;5.13;81.15
74372;BME280;62885;51.374;6.170;2023-02-25T09:33:44;100705.41;;;5.14;81.50
74372;BME280;62885;51.374;6.170;2023-02-25T09:36:12;100709.53;;;5.20;82.00
74372;BME280;62885;51.374;6.170;2023-02-25T09:38:40;100705.06;;;5.20;80.73
74372;BME280;62885;51.374;6.170;2023-02-25T09:46:23;100717.81;;;5.47;nan
74372;BME280;62885;51.374;6.170;2023-02-25T09:48:58;100716.59;;;5.52;80.45
74372;BME280;62885;51.374;6.170;2023-02-25T09:51:31;100724.47;;;5.54;81.02
74372;BME280;62885;51.374;6.170;2023-02-25T09:54:08;100720.13;;;5.53;81.16
74372;BME280;62885;51.374;6.170;2023-02-25T09:56:35;100715.56;;;5.55;81.11
74372;BME280;62885;51.374;6.170;2023-02-25T09:59:02;100724.91;;;5.46;80.31
74372;BME280;62885;51.374;6.170;2023-02-25T10:01:36;100737.81;;;5.36;80.11
74372;BME280;62885;51.374;6.170;2023-02-25T10:04:31;100743.69;;;5.26;80.04
74372;BME280;62885;51.374;6.170;2023-02-25T10:07:14;100738.78;;;5.35;81.22
74372;BME280;62885;51.374;6.170;2023-02-25T10:09:50;100747.22;;;5.26;81.33
74372;BME280;62885;51.374;6.170;2023-02-25T10:12:22;100752.09;;;5.18;81.74
74372;BME280;62885;51.374;6.170;2023-02-25T10:20:33;100768.47;;;5.09;82.68
74372;BME280;62885;51.374;6.170;2023-02-25T10:28:40;100766.63;;;4.94;85.00
74372;BME280;62885;51.374;6.170;2023-02-25T10:31:11;100775.59;;;4.74;85.28
74372;BME280;62885;51.374;6.170;2023-02-25T10:33:39;100788.31;;;4.50;86.68
74372;BME280;62885;51.374;6.170;2023-02-25T10:38:46;100804.50;;;4.44;87.95
74372;BME280;62885;51.374;6.170;2023-02-25T10:41:13;100807.66;;;4.52;87.80
74372;BME280;62885;51.374;6.170;2023-02-25T10:43:38;100806.13;;;4.66;88.19
74372;BME280;62885;51.374;6.170;2023-02-25T10:46:15;100804.00;;;4.72;85.82
74372;BME280;62885;51.374;6.170;2023-02-25T10:48:46;100813.53;;;4.76;83.73
74372;BME280;62885;51.374;6.170;2023-02-25T10:51:15;100821.84;;;4.69;81.82
74372;BME280;62885;51.374;6.170;2023-02-25T10:54:05;100814.91;;;4.66;80.30
74372;BME280;62885;51.374;6.170;2023-02-25T10:56:42;100810.94;;;4.75;80.37
74372;BME280;62885;51.374;6.170;2023-02-25T10:59:25;100820.69;;;4.91;80.04
74372;BME280;62885;51.374;6.170;2023-02-25T11:01:51;100809.38;;;5.05;78.35
74372;BME280;62885;51.374;6.170;2023-02-25T11:04:21;100824.69;;;5.00;78.14
74372;BME280;62885;51.374;6.170;2023-02-25T11:06:47;100793.22;;;5.10;76.17
74372;BME280;62885;51.374;6.170;2023-02-25T11:14:33;100808.16;;;5.45;75.91
74372;BME280;62885;51.374;6.170;2023-02-25T11:17:02;100798.63;;;5.74;76.57
74372;BME280;62885;51.374;6.170;2023-02-25T11:19:31;100803.56;;;5.97;75.13
74372;BME280;62885;51.374;6.170;2023-02-25T11:22:07;100808.00;;;5.97;71.23
74372;BME280;62885;51.374;6.170;2023-02-25T11:24:37;100810.59;;;5.98;70.39
74372;BME280;62885;51.374;6.170;2023-02-25T11:27:05;100811.66;;;5.94;70.78
74372;BME280;62885;51.374;6.170;2023-02-25T11:29:37;100818.56;;;5.98;71.26
74372;BME280;62885;51.374;6.170;2023-02-25T11:32:16;100817.03;;;6.10;71.62
74372;BME280;62885;51.374;6.170;2023-02-25T11:34:49;100816.50;;;6.03;71.61
74372;BME280;62885;51.374;6.170;2023-02-25T11:37:35;100823.44;;;6.06;71.05
74372;BME280;62885;51.374;6.170;2023-02-25T11:40:18;100823.44;;;6.06;68.86
74372;BME280;62885;51.374;6.170;2023-02-25T11:43:12;100824.13;;;5.94;66.21
74372;BME280;62885;51.374;6.170;2023-02-25T11:45:59;100825.75;;;6.12;65.91
74372;BME280;62885;51.374;6.170;2023-02-25T11:48:45;100821.03;;;6.01;64.30
74372;BME280;62885;51.374;6.170;2023-02-25T11:51:24;100820.53;;;6.26;64.37
74372;BME280;62885;51.374;6.170;2023-02-25T11:56:35;100816.19;;;6.55;63.21
74372;BME280;62885;51.374;6.170;2023-02-25T12:32:12;100848.06;;;6.09;64.32
74372;BME280;62885;51.374;6.170;2023-02-25T12:38:12;100819.84;;;6.38;63.06
74372;BME280;62885;51.374;6.170;2023-02-25T12:50:38;100831.16;;;5.62;56.87
74372;BME280;62885;51.374;6.170;2023-02-25T12:56:22;100832.97;;;5.77;56.76
74372;BME280;62885;51.374;6.170;2023-02-25T13:02:03;100816.41;;;6.05;56.65
74372;BME280;62885;51.374;6.170;2023-02-25T13:04:40;100825.56;;;6.31;56.74
74372;BME280;62885;51.374;6.170;2023-02-25T13:07:34;100832.69;;;6.30;56.33
74372;BME280;62885;51.374;6.170;2023-02-25T13:15:59;100824.03;;;6.42;56.69
74372;BME280;62885;51.374;6.170;2023-02-25T13:18:42;100843.69;;;6.40;57.66
74372;BME280;62885;51.374;6.170;2023-02-25T13:24:32;100847.97;;;6.11;58.15
74372;BME280;62885;51.374;6.170;2023-02-25T13:27:18;100848.31;;;6.21;58.66
74372;BME280;62885;51.374;6.170;2023-02-25T13:30:04;100857.06;;;6.23;58.62
74372;BME280;62885;51.374;6.170;2023-02-25T13:32:56;100863.13;;;6.25;58.94
74372;BME280;62885;51.374;6.170;2023-02-25T13:44:31;100865.94;;;6.06;50.64
74372;BME280;62885;51.374;6.170;2023-02-25T13:55:59;100871.63;;;6.15;50.18
74372;BME280;62885;51.374;6.170;2023-02-25T14:07:25;100878.38;;;6.84;50.91
74372;BME280;62885;51.374;6.170;2023-02-25T14:12:47;100888.97;;;6.38;48.39
74372;BME280;62885;51.374;6.170;2023-02-25T14:18:07;100897.69;;;6.25;47.83
74372;BME280;62885;51.374;6.170;2023-02-25T14:20:45;100900.28;;;6.26;47.28
74372;BME280;62885;51.374;6.170;2023-02-25T14:23:47;100899.41;;;6.41;47.88
74372;BME280;62885;51.374;6.170;2023-02-25T14:26:25;100906.53;;;6.41;46.90
74372;BME280;62885;51.374;6.170;2023-02-25T14:29:46;100903.53;;;6.47;47.35
74372;BME280;62885;51.374;6.170;2023-02-25T14:38:08;100917.50;;;6.19;45.35
74372;BME280;62885;51.374;6.170;2023-02-25T14:43:14;100935.22;;;6.03;46.44
74372;BME280;62885;51.374;6.170;2023-02-25T15:05:37;100955.59;;;6.19;43.93
74372;BME280;62885;51.374;6.170;2023-02-25T15:07:59;100950.31;;;6.02;42.78
74372;BME280;62885;51.374;6.170;2023-02-25T15:24:44;100971.53;;;5.69;43.18
74372;BME280;62885;51.374;6.170;2023-02-25T15:30:06;100989.00;;;5.56;43.49
74372;BME280;62885;51.374;6.170;2023-02-25T15:38:37;100991.72;;;5.72;43.90
74372;BME280;62885;51.374;6.170;2023-02-25T15:51:52;101011.56;;;5.48;44.95
74372;BME280;62885;51.374;6.170;2023-02-25T15:56:57;101028.22;;;5.51;45.74
74372;BME280;62885;51.374;6.170;2023-02-25T16:05:01;101028.56;;;5.26;42.16
74372;BME280;62885;51.374;6.170;2023-02-25T16:07:43;101042.94;;;5.22;42.31
74372;BME280;62885;51.374;6.170;2023-02-25T16:12:47;101036.13;;;5.17;42.17
74372;BME280;62885;51.374;6.170;2023-02-25T16:15:23;101053.63;;;5.21;43.20
74372;BME280;62885;51.374;6.170;2023-02-25T16:17:49;101046.50;;;5.21;43.98
74372;BME280;62885;51.374;6.170;2023-02-25T16:20:28;101054.78;;;5.15;43.98
74372;BME280;62885;51.374;6.170;2023-02-25T16:22:58;101048.81;;;5.10;44.88
74372;BME280;62885;51.374;6.170;2023-02-25T16:25:53;101059.03;;;5.01;45.15
74372;BME280;62885;51.374;6.170;2023-02-25T16:31:42;101069.72;;;4.99;45.94
74372;BME280;62885;51.374;6.170;2023-02-25T16:34:13;101067.91;;;5.00;45.68
74372;BME280;62885;51.374;6.170;2023-02-25T16:39:13;101073.84;;;4.86;45.53
74372;BME280;62885;51.374;6.170;2023-02-25T16:41:40;101074.66;;;4.88;46.09
74372;BME280;62885;51.374;6.170;2023-02-25T16:44:06;101079.16;;;4.86;46.65
74372;BME280;62885;51.374;6.170;2023-02-25T16:46:36;101088.00;;;4.86;46.47
74372;BME280;62885;51.374;6.170;2023-02-25T16:49:19;101094.66;;;4.76;46.92
74372;BME280;62885;51.374;6.170;2023-02-25T16:51:45;101099.50;;;4.67;47.10
74372;BME280;62885;51.374;6.170;2023-02-25T16:54:18;101109.41;;;4.63;46.63